logo
App data

Assassin's Creed Freedom Cry

Play as Adewale, an ex-slave turned Assassin fighting for freedom with the help of his own Pirate crew.
Store | Hub | SteamDB | Site
Developer: Ubisoft Montreal Publisher: Ubisoft
Genre: Action, Adventure
Languages: English, French, Italian, German, Spanish - Spain, Czech, Danish, Dutch, Finnish, Norwegian, Polish, Portuguese, Portuguese - Brazil, Russian, Swedish
Tags: Action (180), Adventure (160), Assassin (125), Open World (113), Pirates (108), Stealth (91), Singleplayer (74), Parkour (67), Third Person (54), Historical (51), Story Rich (33), Atmospheric (28), RPG (21), Naval (12), Sailing (9), Sci-fi (7), Gore (6), Swordplay (6), Great Soundtrack (6), Masterpiece (6)
Category: Single-player
Release date: Feb 25, 2014
Price: $5.99 60%
Old userscore: 74% Owners: 100,000 .. 200,000
Followers: 20,091
Peak concurrent players yesterday: 33
YouTube stats: 228 views and 2 comments for top 50 videos uploaded last week, 2 new videos uploaded yesterday.
Playtime total: 01:02 (average) 01:02 (median)

Steam Spy is still in beta, so expect major bugs.

Owners data:

Access restricted.

This feature is only available to users with special access rights. Sorry.

If you want to proceed, you need to register or log in first and then back Steam Spy on Patreon. Look for Indie or Pro pledge.

Don't forget to use the same email as on Steam Spy!

Audience in 2 weeks:

Access restricted.

This feature is only available to users with special access rights. Sorry.

If you want to proceed, you need to register or log in first and then back Steam Spy on Patreon. Look for Indie or Pro pledge.

Don't forget to use the same email as on Steam Spy!

Peak daily concurrent players:

CCU data courtesy of SteamDB. Used with permission.

Hourly concurrent players:

Followers over time

Access restricted.

This feature is only available to users with special access rights. Sorry.

If you want to proceed, you need to register or log in first and then back Steam Spy on Patreon. Look for Indie or Pro pledge.

Don't forget to use the same email as on Steam Spy!

Views for top 50 videos on YouTube for this game:

Games similar to this one:

# Game Release date
Price
Score rank
(Userscore / Metascore)
Owners
Players
Playtime (Median)
1 Tom Clancy's Rainbow Six Vegas Dec 12, 2006 $9.99N/A (N/A/85%)200,000 .. 500,0000%00:00 (00:00)
2 Red Orchestra: Ostfront 41-45 Mar 14, 2006 $4.99N/A (N/A/81%)500,000 .. 1,000,0000%00:00 (00:00)
3 Brothers in Arms: Hell's Highway Oct 8, 2008 $9.99N/A (N/A/79%)100,000 .. 200,00012.5%00:37 (00:12)
4 Disciples II: Rise of the Elves Jul 6, 2006 $1.39N/A (N/A/80%)100,000 .. 200,0000%00:00 (00:00)
5 Oddworld: Munch's Oddysee Dec 20, 2010 $4.99N/A (N/A)200,000 .. 500,0000%00:00 (00:00)
6 Cossacks: Back to War Sep 2, 2010 $4.99N/A (N/A/60%)200,000 .. 500,0000%00:00 (00:00)
7 Oddworld: Stranger's Wrath HD Dec 20, 2010 $9.99N/A (N/A)200,000 .. 500,0000%00:00 (00:00)
8 The Longest Journey May 1, 2007 $9.99N/A (N/A/91%)100,000 .. 200,0000%00:00 (00:00)
9 Red Faction Aug 5, 2009 $9.99N/A (N/A/78%)200,000 .. 500,0000%00:00 (00:00)
10 Just Cause Mar 15, 2007 $6.99N/A (N/A/75%)1,000,000 .. 2,000,0000%00:00 (00:00)
11 Hunted: The Demon’s Forge May 30, 2011 $4.99N/A (N/A/61%)100,000 .. 200,0000%00:00 (00:00)
12 X-Blades Apr 30, 2009 $9.99N/A (N/A/54%)500,000 .. 1,000,0000%00:00 (00:00)
13 Knights of Honor Feb 4, 2009 $9.99N/A (N/A/77%)100,000 .. 200,0000%00:00 (00:00)
14 Railroad Tycoon 3 May 4, 2007 $2.49N/A (N/A/80%)200,000 .. 500,0000%00:00 (00:00)
15 Operation Flashpoint: Red River N/AN/A (N/A/67%)0 .. 20,0000%00:00 (00:00)
16 Penguins Arena: Sedna's World Dec 18, 2008 $5.99N/A (N/A)100,000 .. 200,0000%00:00 (00:00)
17 Lost Planet 2 Oct 15, 2010 $19.99N/A (N/A/63%)100,000 .. 200,0000%00:00 (00:00)
18 The Warlock of Firetop Mountain Aug 30, 2016 $19.99N/A (N/A/70%)50,000 .. 100,0000%00:00 (00:00)
19 Act of Aggression - Reboot Edition Sep 2, 2015 $29.99N/A (N/A/71%)100,000 .. 200,0000%00:00 (00:00)
20 Shadow Warrior 2 Oct 13, 2016 $9.99N/A (N/A/78%)500,000 .. 1,000,0002%00:31 (00:10)
21 Convoy Apr 21, 2015 $14.99N/A (N/A/72%)100,000 .. 200,0000%00:00 (00:00)
22 WASTED Jun 7, 2016 $12.99N/A (N/A/68%)100,000 .. 200,0000%00:00 (00:00)
23 Odallus: The Dark Call Jul 15, 2015 $9.99N/A (N/A/80%)100,000 .. 200,0000%00:00 (00:00)
24 Out There: Ω Edition Apr 2, 2015 $14.99N/A (N/A)100,000 .. 200,0000%00:00 (00:00)
25 Ascension: Deckbuilding Game Dec 16, 2014 $9.99N/A (N/A)50,000 .. 100,0000%00:00 (00:00)
26 Zombie Vikings Dec 7, 2015 $11.99N/A (N/A/74%)50,000 .. 100,0000%00:00 (00:00)
27 Might & Magic Heroes VII Sep 29, 2015 $29.99N/A (N/A)200,000 .. 500,0000%00:00 (00:00)
28 Oceanhorn: Monster of Uncharted Seas Mar 17, 2015 $14.99N/A (N/A/74%)100,000 .. 200,0000%00:00 (00:00)
29 The Magic Circle Jul 9, 2015 $19.99N/A (N/A/79%)20,000 .. 50,0000%00:00 (00:00)
30 Jagged Alliance Online: Reloaded Sep 24, 2015 N/AN/A (N/A)0 .. 20,0000%00:00 (00:00)
31 Halo: Spartan Strike Apr 16, 2015 $2.99N/A (N/A)100,000 .. 200,0000%00:00 (00:00)
32 Particula Feb 2, 2015 $0.99N/A (N/A)200,000 .. 500,0000%00:00 (00:00)
33 Impossible Creatures Steam Edition Nov 11, 2015 $9.99N/A (N/A/72%)100,000 .. 200,0000%00:00 (00:00)
34 Sun Blast: Star Fighter Apr 2, 2015 $1.99N/A (N/A)100,000 .. 200,0000%00:00 (00:00)
35 The Long Journey Home May 30, 2017 $29.99N/A (N/A/68%)50,000 .. 100,0000%00:00 (00:00)
36 SHOGUN: Total War - Collection Jun 25, 2015 $9.99N/A (N/A)100,000 .. 200,0000%00:00 (00:00)
37 Slain: Back from Hell Mar 24, 2016 $12.99N/A (N/A/74%)100,000 .. 200,00012.5%00:01 (00:00)
38 Medieval: Total War - Collection Jun 25, 2015 $9.99N/A (N/A)100,000 .. 200,0000%00:00 (00:00)
39 Letter Quest: Grimm's Journey Remastered Aug 5, 2015 $7.99N/A (N/A)20,000 .. 50,0000%00:00 (00:00)
40 Streets of Fury EX Jun 25, 2015 $9.99N/A (N/A)20,000 .. 50,0000%00:00 (00:00)
41 Tap Tap Infinity Jul 17, 2015 FreeN/A (N/A)200,000 .. 500,0000%00:00 (00:00)
42 Train Valley Sep 16, 2015 $9.99N/A (N/A/69%)200,000 .. 500,0004.76%01:59 (00:39)
43 Shadow Complex Remastered May 3, 2016 $14.99N/A (N/A)100,000 .. 200,0000%00:00 (00:00)
44 The Deadly Tower of Monsters Jan 19, 2016 $14.99N/A (N/A/73%)50,000 .. 100,0000%00:00 (00:00)
45 Call of Duty: Modern Warfare Remastered Jul 27, 2017 $39.99N/A (N/A)50,000 .. 100,0000%00:00 (00:00)
46 Uncanny Valley Apr 23, 2015 $9.99N/A (N/A/67%)100,000 .. 200,0000%00:00 (00:00)
47 Battlevoid: Harbinger Feb 24, 2016 $9.99N/A (N/A)100,000 .. 200,0000%00:00 (00:00)
48 Assassin’s Creed Chronicles: Russia Feb 9, 2016 $3.39N/A (N/A)50,000 .. 100,0000%00:00 (00:00)
49 War of Beach Oct 15, 2015 FreeN/A (N/A)100,000 .. 200,0000%00:00 (00:00)
50 Toukiden: Kiwami Jun 25, 2015 $59.99N/A (N/A)50,000 .. 100,0000%00:00 (00:00)
51 Epistory - Typing Chronicles Mar 30, 2016 $14.99N/A (N/A/74%)200,000 .. 500,0000%00:00 (00:00)
52 Command & Conquer 4: Tiberian Twilight Mar 16, 2010 $19.99N/A (N/A/64%)200,000 .. 500,0000%00:00 (00:00)
53 Renegade Ops Oct 26, 2011 $15N/A (N/A/76%)500,000 .. 1,000,0000%00:00 (00:00)
54 Aliens: Colonial Marines Collection $29.99N/A (N/A/45%)200,000 .. 500,0006.25%00:40 (00:13)
55 Memoir '44 Online Oct 12, 2011 FreeN/A (N/A)200,000 .. 500,0000%00:00 (00:00)
56 Red Faction: Armageddon Jun 6, 2011 $17.99N/A (N/A/75%)1,000,000 .. 2,000,0000%00:00 (00:00)
57 Sins of a Solar Empire: Trinity Nov 16, 2011 $4.99N/A (N/A/87%)200,000 .. 500,0000%00:00 (00:00)
58 The First Templar - Steam Special Edition May 12, 2011 $9.99N/A (N/A/57%)100,000 .. 200,0000%00:00 (00:00)
59 Warlock - Master of the Arcane May 8, 2012 $24.99N/A (N/A/71%)500,000 .. 1,000,0000%00:00 (00:00)
60 Jagged Alliance - Back in Action Feb 8, 2012 $19.99N/A (N/A/62%)200,000 .. 500,0000%00:00 (00:00)
61 Serious Sam 2 Oct 11, 2005 $9.99N/A (N/A/74%)1,000,000 .. 2,000,0000%00:00 (00:00)
62 Majesty 2 Collection Apr 19, 2011 N/AN/A (N/A)200,000 .. 500,0000%00:00 (00:00)
63 Omerta - City of Gangsters Jan 31, 2013 $14.99N/A (N/A)200,000 .. 500,0000%00:00 (00:00)
64 DETOUR May 16, 2011 $1.99N/A (N/A)200,000 .. 500,0000%00:00 (00:00)
65 Blades of Time Apr 20, 2012 $9.99N/A (N/A/63%)200,000 .. 500,0004.76%00:14 (00:04)
66 Section 8: Prejudice May 4, 2011 $9.99N/A (N/A/77%)200,000 .. 500,0000%00:00 (00:00)
67 Viking: Battle for Asgard Oct 17, 2012 $14.99N/A (N/A)1,000,000 .. 2,000,0000%00:00 (00:00)
68 Frozen Synapse May 26, 2011 $24.99N/A (N/A/85%)500,000 .. 1,000,0000%00:00 (00:00)
69 Age of Steel: Recharge Jan 6, 2016 $6.99N/A (N/A)100,000 .. 200,0000%00:00 (00:00)
70 Concrete Jungle Sep 23, 2015 $6.99N/A (N/A/76%)50,000 .. 100,0000%00:00 (00:00)
71 Deadlight: Director's Cut Jun 21, 2016 $11.99N/A (N/A)100,000 .. 200,0000%00:00 (00:00)
72 Normality Oct 9, 2015 $2.99N/A (N/A)200,000 .. 500,0000%00:00 (00:00)
73 Seraph Sep 20, 2016 $12.99N/A (N/A/80%)50,000 .. 100,0000%00:00 (00:00)
74 POSTAL Redux May 20, 2016 $8.99N/A (N/A/54%)100,000 .. 200,0000%00:00 (00:00)
75 DEAD RISING Sep 12, 2016 $19.99N/A (N/A)200,000 .. 500,0000%00:00 (00:00)
76 Turok 2: Seeds of Evil Dec 10, 1998 $19.99N/A (N/A)50,000 .. 100,0000%00:00 (00:00)
77 Hitman GO: Definitive Edition Feb 23, 2016 $7.99N/A (N/A/72%)100,000 .. 200,0000%00:00 (00:00)
78 Hard Reset Redux Jun 3, 2016 $1.99N/A (N/A/73%)100,000 .. 200,0000%00:00 (00:00)
79 Dead6hot Feb 1, 2016 $0.99N/A (N/A)200,000 .. 500,0000%00:00 (00:00)
80 12 is Better Than 6 Nov 20, 2015 $9.99N/A (N/A/74%)500,000 .. 1,000,0000%00:00 (00:00)
81 One Troll Army May 20, 2016 FreeN/A (N/A)200,000 .. 500,0000%00:00 (00:00)
82 TY the Tasmanian Tiger Dec 12, 2016 $14.99N/A (N/A)50,000 .. 100,0000%00:00 (00:00)
83 Survival Zombies The Inverted Evolution May 8, 2017 $4.99N/A (N/A)50,000 .. 100,0000%00:00 (00:00)
84 Pang Adventures Apr 18, 2016 $9.99N/A (N/A)20,000 .. 50,0000%00:00 (00:00)
85 Diluvion: Resubmerged Feb 2, 2017 $19.99N/A (N/A/66%)100,000 .. 200,0000%00:00 (00:00)
86 Kung Fu Strike - The Warrior's Rise Jul 24, 2012 $9.99N/A (N/A)100,000 .. 200,0000%00:00 (00:00)
87 Tomb Raider III Nov 28, 2012 $6.99N/A (N/A)500,000 .. 1,000,0000%00:00 (00:00)
88 Inversion Jul 26, 2012 $9.99N/A (N/A)20,000 .. 50,0000%00:00 (00:00)
89 Hegemony Rome: The Rise of Caesar May 15, 2014 $14.99N/A (N/A)50,000 .. 100,0000%00:00 (00:00)
90 Tom Clancy's Ghost Recon: Future Soldier Jun 26, 2012 $19.99N/A (N/A/71%)200,000 .. 500,0000%00:00 (00:00)
91 Kingdom Wars Apr 1, 2013 FreeN/A (N/A)500,000 .. 1,000,0000%00:00 (00:00)
92 Air Conflicts: Pacific Carriers Sep 21, 2012 $9.99N/A (N/A)100,000 .. 200,0000%00:00 (00:00)
93 God Mode Apr 19, 2013 N/AN/A (N/A/58%)200,000 .. 500,0000%00:00 (00:00)
94 Tiny Troopers Aug 24, 2012 $4.99N/A (N/A/57%)100,000 .. 200,0000%00:00 (00:00)
95 Fallen Enchantress: Legendary Heroes May 22, 2013 $24.99N/A (N/A/80%)200,000 .. 500,0000%00:00 (00:00)
96 Unity of Command: Stalingrad Campaign Oct 17, 2012 $9.99N/A (N/A/84%)100,000 .. 200,0000%00:00 (00:00)
97 War for the Overworld Apr 2, 2015 $29.99N/A (N/A)500,000 .. 1,000,0000%00:00 (00:00)
98 StarDrive Apr 26, 2013 $29.99N/A (N/A/61%)200,000 .. 500,0000%00:00 (00:00)
99 Eador. Masters of the Broken World Apr 19, 2013 $19.99N/A (N/A/74%)500,000 .. 1,000,0001.85%01:31 (01:00)
100 Xenonauts Jun 16, 2014 $24.99N/A (N/A/77%)200,000 .. 500,0000%00:00 (00:00)
101 Blitzkrieg 3 Jun 2, 2017 $9.99N/A (N/A/68%)50,000 .. 100,0000%00:00 (00:00)
102 Tomb Raider II Nov 28, 2012 $6.99N/A (N/A)500,000 .. 1,000,0000%00:00 (00:00)
103 Serious Sam Fusion 2017 (beta) $14.99N/A (N/A)0 .. 20,0000.88%00:01 (00:00)
104 Zombillie Apr 29, 2016 $4.99N/A (N/A)50,000 .. 100,0000%00:00 (00:00)
105 Zeus + Poseidon Dec 15, 2016 $9.99N/A (N/A)50,000 .. 100,0000%00:00 (00:00)
106 Song of the Deep Jul 11, 2016 $14.99N/A (N/A/71%)50,000 .. 100,0000%00:00 (00:00)
107 Sudden Strike Gold Jan 24, 2001 $5.99N/A (N/A)50,000 .. 100,0000%00:00 (00:00)
108 Vanquish May 25, 2017 $19.99N/A (N/A/78%)200,000 .. 500,0000%00:00 (00:00)
109 Roll'd Apr 14, 2016 $0.99N/A (N/A)20,000 .. 50,0000%00:00 (00:00)
110 STANDBY Jan 6, 2017 $7.99N/A (N/A)20,000 .. 50,0000%00:00 (00:00)
111 Asura: Vengeance Edition Apr 13, 2017 $9.99N/A (N/A)20,000 .. 50,0000%00:00 (00:00)
112 Mages of Mystralia May 18, 2017 $19.99N/A (N/A/74%)20,000 .. 50,00014.29%03:04 (01:01)
113 Dead Rising 4 Mar 14, 2017 $29.99N/A (N/A/74%)200,000 .. 500,0000%00:00 (00:00)
114 Dust: An Elysian Tail May 24, 2013 $14.99N/A (N/A)1,000,000 .. 2,000,0000%00:00 (00:00)
115 Duskers May 18, 2016 $19.99N/A (N/A/83%)100,000 .. 200,0000%00:00 (00:00)
116 Sid Meier’s Ace Patrol: Pacific Skies Nov 5, 2013 $1.24N/A (N/A)500,000 .. 1,000,0000%00:00 (00:00)
117 Rebuild 3: Gangs of Deadsville May 29, 2015 $14.99N/A (N/A/75%)100,000 .. 200,0000%00:00 (00:00)
118 MASSIVE CHALICE Jun 1, 2015 $19.99N/A (N/A/73%)100,000 .. 200,0000%00:00 (00:00)
119 Blood Knights Nov 13, 2013 $9.99N/A (N/A)50,000 .. 100,0000%00:00 (00:00)
120 Legends of Eisenwald Jul 2, 2015 $19.99N/A (N/A/71%)100,000 .. 200,0000%00:00 (00:00)
121 Savant - Ascent Dec 4, 2013 $1.99N/A (N/A)200,000 .. 500,0000%00:00 (00:00)
122 Megabyte Punch Oct 15, 2013 $14.99N/A (N/A/69%)200,000 .. 500,0000%00:00 (00:00)
123 The Last Tinker: City of Colors May 12, 2014 $0.99N/A (N/A/72%)100,000 .. 200,0000%00:00 (00:00)
124 Scribblenauts Unmasked: A DC Comics Adventure Sep 24, 2013 $19.99N/A (N/A/68%)200,000 .. 500,0000%00:00 (00:00)
125 The Red Solstice Jul 9, 2015 $9.99N/A (N/A/74%)1,000,000 .. 2,000,0000.76%00:01 (00:00)
126 Anomaly Korea Nov 6, 2013 $4.99N/A (N/A)200,000 .. 500,0000%00:00 (00:00)
127 Breach & Clear Mar 21, 2014 $14.99N/A (N/A)200,000 .. 500,0000%00:00 (00:00)
128 Kingdom Wars 2: Battles Mar 4, 2016 N/AN/A (N/A)50,000 .. 100,0000%00:00 (00:00)
129 Batman: Arkham Origins Blackgate - Deluxe Edition Apr 1, 2014 $19.99N/A (N/A)200,000 .. 500,0000%00:00 (00:00)
130 WARMACHINE: Tactics Nov 20, 2014 FreeN/A (N/A)100,000 .. 200,0000%00:00 (00:00)
131 Imperial Glory Apr 11, 2014 $4.99N/A (N/A/69%)100,000 .. 200,0000%00:00 (00:00)
132 Commando Jack Aug 22, 2014 $1.99N/A (N/A)200,000 .. 500,0000%00:00 (00:00)
133 Creeper World 3: Arc Eternal Mar 27, 2014 $14.99N/A (N/A)200,000 .. 500,00010%03:30 (01:10)
134 Battle Islands Aug 6, 2014 FreeN/A (N/A)500,000 .. 1,000,0000%00:00 (00:00)
135 Castlevania: Lords of Shadow – Mirror of Fate HD Mar 27, 2014 $14.99N/A (N/A)100,000 .. 200,0000%00:00 (00:00)
136 Crookz - The Big Heist Aug 25, 2015 $9.99N/A (N/A/74%)20,000 .. 50,0000%00:00 (00:00)
137 House of the Dying Sun Nov 1, 2016 $19.99N/A (N/A/76%)100,000 .. 200,0000%00:00 (00:00)
138 Geometry Wars 3: Dimensions Evolved Nov 25, 2014 $14.99N/A (N/A)100,000 .. 200,0000%00:00 (00:00)
139 Incoming Forces Sep 24, 2002 $2.99N/A (N/A/67%)100,000 .. 200,0000%00:00 (00:00)
140 Oddworld: New 'n' Tasty Feb 25, 2015 $19.99N/A (N/A/87%)200,000 .. 500,0000%00:00 (00:00)
141 Braveland Mar 17, 2014 $4.49N/A (N/A)500,000 .. 1,000,0000.6%00:30 (00:10)
142 Battle of Empires : 1914-1918 Jul 22, 2015 $8.99N/A (N/A)50,000 .. 100,0000%00:00 (00:00)
143 Pandora: First Contact Nov 14, 2013 $29.99N/A (N/A/68%)50,000 .. 100,0000%00:00 (00:00)
144 The Original Strife: Veteran Edition May 31, 1996 $9.99N/A (N/A)100,000 .. 200,0000%00:00 (00:00)
145 Faces of War Apr 16, 2014 $4.99N/A (N/A/67%)20,000 .. 50,0000%00:00 (00:00)
146 Space Hulk: Ascension Nov 12, 2014 N/AN/A (N/A/72%)100,000 .. 200,0000%00:00 (00:00)
147 Grey Goo Jan 23, 2015 $29.99N/A (N/A/77%)200,000 .. 500,0000%00:00 (00:00)

Tags over time:

Access restricted.

This feature is only available to users with special access rights. Sorry.

If you want to proceed, you need to register or log in first and then back Steam Spy on Patreon. Look for Indie or Pro pledge.

Don't forget to use the same email as on Steam Spy!

Owners of this game also own:

Access restricted.

This feature is only available to users with special access rights. Sorry.

If you want to proceed, you need to register or log in first and then back Steam Spy on Patreon. Look for Indie or Pro pledge.

Don't forget to use the same email as on Steam Spy!

Playtime distribution:

Access restricted.

This feature is only available to users with special access rights. Sorry.

If you want to proceed, you need to register or log in first and then back Steam Spy on Patreon. Look for Indie or Pro pledge.

Don't forget to use the same email as on Steam Spy!

Playtime (2 weeks):

Access restricted.

This feature is only available to users with special access rights. Sorry.

If you want to proceed, you need to register or log in first and then back Steam Spy on Patreon. Look for Indie or Pro pledge.

Don't forget to use the same email as on Steam Spy!

User reviews:

Login required.

Please register or log in to see this information.